sensor_id;sensor_type;location;lat;lon;timestamp;temperature;humidity
14142;DHT22;7151;52.246;4.820;2022-12-07T00:01:18;9.60;85.00
14142;DHT22;7151;52.246;4.820;2022-12-07T00:03:45;9.60;85.00
14142;DHT22;7151;52.246;4.820;2022-12-07T00:06:13;9.60;85.00
14142;DHT22;7151;52.246;4.820;2022-12-07T00:08:39;9.60;85.00
14142;DHT22;7151;52.246;4.820;2022-12-07T00:11:06;9.60;85.70
14142;DHT22;7151;52.246;4.820;2022-12-07T00:13:33;9.60;85.00
14142;DHT22;7151;52.246;4.820;2022-12-07T00:16:05;9.60;85.00
14142;DHT22;7151;52.246;4.820;2022-12-07T00:18:30;9.50;84.90
14142;DHT22;7151;52.246;4.820;2022-12-07T00:21:02;9.50;84.80
14142;DHT22;7151;52.246;4.820;2022-12-07T00:23:29;9.50;84.70
14142;DHT22;7151;52.246;4.820;2022-12-07T00:25:54;9.50;84.60
14142;DHT22;7151;52.246;4.820;2022-12-07T00:28:20;9.50;84.50
14142;DHT22;7151;52.246;4.820;2022-12-07T00:30:46;9.50;84.60
14142;DHT22;7151;52.246;4.820;2022-12-07T00:33:11;9.40;84.70
14142;DHT22;7151;52.246;4.820;2022-12-07T00:35:37;9.40;85.00
14142;DHT22;7151;52.246;4.820;2022-12-07T00:38:02;9.40;85.10
14142;DHT22;7151;52.246;4.820;2022-12-07T00:40:28;9.40;85.20
14142;DHT22;7151;52.246;4.820;2022-12-07T00:42:53;9.50;85.30
14142;DHT22;7151;52.246;4.820;2022-12-07T00:45:19;9.50;85.30
14142;DHT22;7151;52.246;4.820;2022-12-07T00:47:45;9.50;85.20
14142;DHT22;7151;52.246;4.820;2022-12-07T00:50:10;9.50;85.10
14142;DHT22;7151;52.246;4.820;2022-12-07T00:52:36;9.50;85.10
14142;DHT22;7151;52.246;4.820;2022-12-07T00:55:01;9.50;85.20
14142;DHT22;7151;52.246;4.820;2022-12-07T00:57:27;9.50;85.20
14142;DHT22;7151;52.246;4.820;2022-12-07T00:59:52;9.50;85.10
14142;DHT22;7151;52.246;4.820;2022-12-07T01:02:21;9.50;85.00
14142;DHT22;7151;52.246;4.820;2022-12-07T01:04:47;9.50;85.00
14142;DHT22;7151;52.246;4.820;2022-12-07T01:07:13;9.40;85.00
14142;DHT22;7151;52.246;4.820;2022-12-07T01:09:38;9.40;84.90
14142;DHT22;7151;52.246;4.820;2022-12-07T01:12:04;9.40;84.80
14142;DHT22;7151;52.246;4.820;2022-12-07T01:14:30;9.40;84.70
14142;DHT22;7151;52.246;4.820;2022-12-07T01:16:55;9.40;84.60
14142;DHT22;7151;52.246;4.820;2022-12-07T01:19:21;9.40;84.60
14142;DHT22;7151;52.246;4.820;2022-12-07T01:21:46;9.40;84.60
14142;DHT22;7151;52.246;4.820;2022-12-07T01:24:12;9.40;84.70
14142;DHT22;7151;52.246;4.820;2022-12-07T01:26:38;9.30;84.60
14142;DHT22;7151;52.246;4.820;2022-12-07T01:29:04;9.30;84.50
14142;DHT22;7151;52.246;4.820;2022-12-07T01:31:29;9.30;84.60
14142;DHT22;7151;52.246;4.820;2022-12-07T01:33:57;9.30;84.80
14142;DHT22;7151;52.246;4.820;2022-12-07T01:36:27;9.30;85.00
14142;DHT22;7151;52.246;4.820;2022-12-07T01:38:56;9.30;85.20
14142;DHT22;7151;52.246;4.820;2022-12-07T01:41:24;9.30;85.40
14142;DHT22;7151;52.246;4.820;2022-12-07T01:44:10;9.30;85.60
14142;DHT22;7151;52.246;4.820;2022-12-07T01:46:35;9.40;85.90
14142;DHT22;7151;52.246;4.820;2022-12-07T01:49:02;9.40;85.80
14142;DHT22;7151;52.246;4.820;2022-12-07T01:51:29;9.40;86.00
14142;DHT22;7151;52.246;4.820;2022-12-07T01:53:55;9.40;86.00
14142;DHT22;7151;52.246;4.820;2022-12-07T01:56:25;9.40;86.10
14142;DHT22;7151;52.246;4.820;2022-12-07T01:58:52;9.50;86.10
14142;DHT22;7151;52.246;4.820;2022-12-07T02:01:18;9.50;86.10
14142;DHT22;7151;52.246;4.820;2022-12-07T02:03:45;9.50;86.00
14142;DHT22;7151;52.246;4.820;2022-12-07T02:06:13;9.50;85.90
14142;DHT22;7151;52.246;4.820;2022-12-07T02:08:41;9.50;85.90
14142;DHT22;7151;52.246;4.820;2022-12-07T02:11:08;9.50;85.90
14142;DHT22;7151;52.246;4.820;2022-12-07T02:13:36;9.50;85.80
14142;DHT22;7151;52.246;4.820;2022-12-07T02:16:18;9.50;85.80
14142;DHT22;7151;52.246;4.820;2022-12-07T02:29:16;9.40;85.60
14142;DHT22;7151;52.246;4.820;2022-12-07T02:32:03;9.40;85.50
14142;DHT22;7151;52.246;4.820;2022-12-07T02:34:40;9.40;85.50
14142;DHT22;7151;52.246;4.820;2022-12-07T02:40:08;9.30;85.30
14142;DHT22;7151;52.246;4.820;2022-12-07T02:42:45;9.30;85.30
14142;DHT22;7151;52.246;4.820;2022-12-07T02:45:14;9.30;85.30
14142;DHT22;7151;52.246;4.820;2022-12-07T02:47:41;9.30;85.30
14142;DHT22;7151;52.246;4.820;2022-12-07T02:50:08;9.20;85.30
14142;DHT22;7151;52.246;4.820;2022-12-07T02:52:34;9.20;85.30
14142;DHT22;7151;52.246;4.820;2022-12-07T02:55:00;9.20;85.30
14142;DHT22;7151;52.246;4.820;2022-12-07T03:00:19;9.20;85.30
14142;DHT22;7151;52.246;4.820;2022-12-07T03:03:07;9.20;85.30
14142;DHT22;7151;52.246;4.820;2022-12-07T03:05:59;9.20;85.30
14142;DHT22;7151;52.246;4.820;2022-12-07T03:08:44;9.20;85.30
14142;DHT22;7151;52.246;4.820;2022-12-07T03:11:14;9.10;85.20
14142;DHT22;7151;52.246;4.820;2022-12-07T03:16:21;9.10;84.90
14142;DHT22;7151;52.246;4.820;2022-12-07T03:19:02;9.10;84.70
14142;DHT22;7151;52.246;4.820;2022-12-07T03:21:35;9.00;84.60
14142;DHT22;7151;52.246;4.820;2022-12-07T03:24:07;9.00;84.50
14142;DHT22;7151;52.246;4.820;2022-12-07T03:26:40;9.00;84.40
14142;DHT22;7151;52.246;4.820;2022-12-07T03:29:10;9.00;84.40
14142;DHT22;7151;52.246;4.820;2022-12-07T03:31:41;8.90;84.20
14142;DHT22;7151;52.246;4.820;2022-12-07T03:34:16;8.90;84.20
14142;DHT22;7151;52.246;4.820;2022-12-07T03:37:04;8.80;84.20
14142;DHT22;7151;52.246;4.820;2022-12-07T03:39:54;8.80;84.30
14142;DHT22;7151;52.246;4.820;2022-12-07T03:42:23;8.80;84.40
14142;DHT22;7151;52.246;4.820;2022-12-07T03:44:49;8.80;84.50
14142;DHT22;7151;52.246;4.820;2022-12-07T03:47:42;8.80;84.50
14142;DHT22;7151;52.246;4.820;2022-12-07T03:52:57;8.80;84.80
14142;DHT22;7151;52.246;4.820;2022-12-07T03:55:35;8.80;84.90
14142;DHT22;7151;52.246;4.820;2022-12-07T03:58:05;8.80;84.80
14142;DHT22;7151;52.246;4.820;2022-12-07T04:00:32;8.80;84.80
14142;DHT22;7151;52.246;4.820;2022-12-07T04:02:58;8.80;84.70
14142;DHT22;7151;52.246;4.820;2022-12-07T04:05:24;8.80;84.80
14142;DHT22;7151;52.246;4.820;2022-12-07T04:07:50;8.70;84.70
14142;DHT22;7151;52.246;4.820;2022-12-07T04:10:16;8.70;84.60
14142;DHT22;7151;52.246;4.820;2022-12-07T04:12:42;8.70;84.50
14142;DHT22;7151;52.246;4.820;2022-12-07T04:15:08;8.70;84.40
14142;DHT22;7151;52.246;4.820;2022-12-07T04:17:34;8.70;84.30
14142;DHT22;7151;52.246;4.820;2022-12-07T04:19:59;8.70;84.30
14142;DHT22;7151;52.246;4.820;2022-12-07T04:22:25;8.70;84.20
14142;DHT22;7151;52.246;4.820;2022-12-07T04:24:51;8.60;84.20
14142;DHT22;7151;52.246;4.820;2022-12-07T04:27:16;8.60;84.10
14142;DHT22;7151;52.246;4.820;2022-12-07T04:29:42;8.60;84.20
14142;DHT22;7151;52.246;4.820;2022-12-07T04:32:07;8.60;84.20
14142;DHT22;7151;52.246;4.820;2022-12-07T04:34:33;8.60;84.20
14142;DHT22;7151;52.246;4.820;2022-12-07T04:36:58;8.60;84.30
14142;DHT22;7151;52.246;4.820;2022-12-07T04:39:31;8.60;84.30
14142;DHT22;7151;52.246;4.820;2022-12-07T04:41:57;8.60;84.30
14142;DHT22;7151;52.246;4.820;2022-12-07T04:44:24;8.60;84.20
14142;DHT22;7151;52.246;4.820;2022-12-07T04:46:51;8.50;84.00
14142;DHT22;7151;52.246;4.820;2022-12-07T04:49:17;8.50;84.00
14142;DHT22;7151;52.246;4.820;2022-12-07T04:51:44;8.50;83.90
14142;DHT22;7151;52.246;4.820;2022-12-07T04:54:10;8.50;83.80
14142;DHT22;7151;52.246;4.820;2022-12-07T04:56:36;8.50;83.80
14142;DHT22;7151;52.246;4.820;2022-12-07T04:59:02;8.40;83.70
14142;DHT22;7151;52.246;4.820;2022-12-07T05:01:28;8.40;83.70
14142;DHT22;7151;52.246;4.820;2022-12-07T05:03:54;8.40;83.70
14142;DHT22;7151;52.246;4.820;2022-12-07T05:06:20;8.40;83.60
14142;DHT22;7151;52.246;4.820;2022-12-07T05:08:46;8.40;83.60
14142;DHT22;7151;52.246;4.820;2022-12-07T05:11:11;8.30;83.60
14142;DHT22;7151;52.246;4.820;2022-12-07T05:14:01;8.30;83.60
14142;DHT22;7151;52.246;4.820;2022-12-07T05:16:27;8.30;83.70
14142;DHT22;7151;52.246;4.820;2022-12-07T05:18:53;8.30;83.70
14142;DHT22;7151;52.246;4.820;2022-12-07T05:21:19;8.30;83.90
14142;DHT22;7151;52.246;4.820;2022-12-07T05:23:44;8.30;83.90
14142;DHT22;7151;52.246;4.820;2022-12-07T05:26:10;8.30;84.60
14142;DHT22;7151;52.246;4.820;2022-12-07T05:28:35;8.30;84.00
14142;DHT22;7151;52.246;4.820;2022-12-07T05:31:01;8.30;84.80
14142;DHT22;7151;52.246;4.820;2022-12-07T05:33:27;8.30;84.30
14142;DHT22;7151;52.246;4.820;2022-12-07T05:35:52;8.30;84.50
14142;DHT22;7151;52.246;4.820;2022-12-07T05:38:18;8.30;84.60
14142;DHT22;7151;52.246;4.820;2022-12-07T05:40:43;8.30;84.70
14142;DHT22;7151;52.246;4.820;2022-12-07T05:43:09;8.30;84.80
14142;DHT22;7151;52.246;4.820;2022-12-07T05:45:35;8.40;84.90
14142;DHT22;7151;52.246;4.820;2022-12-07T05:48:01;8.40;84.90
14142;DHT22;7151;52.246;4.820;2022-12-07T05:50:26;8.40;85.00
14142;DHT22;7151;52.246;4.820;2022-12-07T05:52:53;8.40;85.00
14142;DHT22;7151;52.246;4.820;2022-12-07T05:55:18;8.40;85.00
14142;DHT22;7151;52.246;4.820;2022-12-07T05:57:44;8.40;85.00
14142;DHT22;7151;52.246;4.820;2022-12-07T06:00:30;8.40;85.00
14142;DHT22;7151;52.246;4.820;2022-12-07T06:02:55;8.40;85.10
14142;DHT22;7151;52.246;4.820;2022-12-07T06:05:21;8.50;85.30
14142;DHT22;7151;52.246;4.820;2022-12-07T06:07:46;8.40;85.30
14142;DHT22;7151;52.246;4.820;2022-12-07T06:10:12;8.50;85.40
14142;DHT22;7151;52.246;4.820;2022-12-07T06:12:37;8.50;85.40
14142;DHT22;7151;52.246;4.820;2022-12-07T06:15:05;8.50;85.50
14142;DHT22;7151;52.246;4.820;2022-12-07T06:17:31;8.50;85.50
14142;DHT22;7151;52.246;4.820;2022-12-07T06:19:57;8.60;85.50
14142;DHT22;7151;52.246;4.820;2022-12-07T06:22:23;8.60;85.50
14142;DHT22;7151;52.246;4.820;2022-12-07T06:24:48;8.60;85.40
14142;DHT22;7151;52.246;4.820;2022-12-07T06:27:14;8.60;85.40
14142;DHT22;7151;52.246;4.820;2022-12-07T06:29:40;8.60;85.30
14142;DHT22;7151;52.246;4.820;2022-12-07T06:32:05;8.60;85.30
14142;DHT22;7151;52.246;4.820;2022-12-07T06:34:31;8.60;85.30
14142;DHT22;7151;52.246;4.820;2022-12-07T06:36:57;8.60;85.40
14142;DHT22;7151;52.246;4.820;2022-12-07T06:39:25;8.60;85.40
14142;DHT22;7151;52.246;4.820;2022-12-07T06:41:51;8.60;85.40
14142;DHT22;7151;52.246;4.820;2022-12-07T06:44:20;8.60;85.40
14142;DHT22;7151;52.246;4.820;2022-12-07T06:46:46;8.60;85.30
14142;DHT22;7151;52.246;4.820;2022-12-07T06:49:11;8.50;85.30
14142;DHT22;7151;52.246;4.820;2022-12-07T06:51:37;8.50;85.30
14142;DHT22;7151;52.246;4.820;2022-12-07T06:54:10;8.50;85.30
14142;DHT22;7151;52.246;4.820;2022-12-07T06:56:36;8.50;85.30
14142;DHT22;7151;52.246;4.820;2022-12-07T06:59:03;8.50;85.40
14142;DHT22;7151;52.246;4.820;2022-12-07T07:01:29;8.50;85.30
14142;DHT22;7151;52.246;4.820;2022-12-07T07:03:54;8.50;85.10
14142;DHT22;7151;52.246;4.820;2022-12-07T07:06:20;8.50;85.10
14142;DHT22;7151;52.246;4.820;2022-12-07T07:08:45;8.50;85.00
14142;DHT22;7151;52.246;4.820;2022-12-07T07:11:11;8.50;85.00
14142;DHT22;7151;52.246;4.820;2022-12-07T07:13:37;8.50;85.00
14142;DHT22;7151;52.246;4.820;2022-12-07T07:16:03;8.40;85.00
14142;DHT22;7151;52.246;4.820;2022-12-07T07:18:29;8.40;85.00
14142;DHT22;7151;52.246;4.820;2022-12-07T07:20:54;8.40;85.00
14142;DHT22;7151;52.246;4.820;2022-12-07T07:23:21;8.40;85.00
14142;DHT22;7151;52.246;4.820;2022-12-07T07:25:47;8.40;84.80
14142;DHT22;7151;52.246;4.820;2022-12-07T07:28:14;8.40;84.80
14142;DHT22;7151;52.246;4.820;2022-12-07T07:30:40;8.40;84.80
14142;DHT22;7151;52.246;4.820;2022-12-07T07:33:06;8.40;84.70
14142;DHT22;7151;52.246;4.820;2022-12-07T07:35:33;8.30;84.70
14142;DHT22;7151;52.246;4.820;2022-12-07T07:38:00;8.30;84.60
14142;DHT22;7151;52.246;4.820;2022-12-07T07:40:26;8.30;84.60
14142;DHT22;7151;52.246;4.820;2022-12-07T07:42:53;8.30;84.50
14142;DHT22;7151;52.246;4.820;2022-12-07T07:45:22;8.30;84.50
14142;DHT22;7151;52.246;4.820;2022-12-07T07:47:49;8.30;84.40
14142;DHT22;7151;52.246;4.820;2022-12-07T07:50:15;8.30;84.30
14142;DHT22;7151;52.246;4.820;2022-12-07T07:52:41;8.20;84.30
14142;DHT22;7151;52.246;4.820;2022-12-07T07:55:07;8.20;84.40
14142;DHT22;7151;52.246;4.820;2022-12-07T07:57:34;8.20;84.50
14142;DHT22;7151;52.246;4.820;2022-12-07T08:00:00;8.20;84.60
14142;DHT22;7151;52.246;4.820;2022-12-07T08:02:25;8.20;85.40
14142;DHT22;7151;52.246;4.820;2022-12-07T08:04:51;8.20;84.80
14142;DHT22;7151;52.246;4.820;2022-12-07T08:07:16;8.20;84.90
14142;DHT22;7151;52.246;4.820;2022-12-07T08:09:42;8.20;85.00
14142;DHT22;7151;52.246;4.820;2022-12-07T08:12:07;8.30;85.10
14142;DHT22;7151;52.246;4.820;2022-12-07T08:14:33;8.20;85.00
14142;DHT22;7151;52.246;4.820;2022-12-07T08:16:59;8.30;85.10
14142;DHT22;7151;52.246;4.820;2022-12-07T08:19:25;8.30;85.20
14142;DHT22;7151;52.246;4.820;2022-12-07T08:21:51;8.30;85.30
14142;DHT22;7151;52.246;4.820;2022-12-07T08:24:17;8.30;85.40
14142;DHT22;7151;52.246;4.820;2022-12-07T08:26:42;8.30;85.40
14142;DHT22;7151;52.246;4.820;2022-12-07T08:29:08;8.30;85.40
14142;DHT22;7151;52.246;4.820;2022-12-07T08:31:34;8.30;85.40
14142;DHT22;7151;52.246;4.820;2022-12-07T08:34:00;8.30;85.40
14142;DHT22;7151;52.246;4.820;2022-12-07T08:36:25;8.30;85.40
14142;DHT22;7151;52.246;4.820;2022-12-07T08:38:51;8.30;85.40
14142;DHT22;7151;52.246;4.820;2022-12-07T08:41:16;8.30;85.30
14142;DHT22;7151;52.246;4.820;2022-12-07T08:43:42;8.30;85.40
14142;DHT22;7151;52.246;4.820;2022-12-07T08:46:41;8.30;85.60
14142;DHT22;7151;52.246;4.820;2022-12-07T08:49:22;8.40;85.70
14142;DHT22;7151;52.246;4.820;2022-12-07T08:51:48;8.40;85.90
14142;DHT22;7151;52.246;4.820;2022-12-07T08:54:16;8.40;85.90
14142;DHT22;7151;52.246;4.820;2022-12-07T08:56:44;8.40;86.00
14142;DHT22;7151;52.246;4.820;2022-12-07T08:59:10;8.40;86.20
14142;DHT22;7151;52.246;4.820;2022-12-07T09:01:36;8.50;86.30
14142;DHT22;7151;52.246;4.820;2022-12-07T09:04:01;8.50;86.30
14142;DHT22;7151;52.246;4.820;2022-12-07T09:06:27;8.50;86.50
14142;DHT22;7151;52.246;4.820;2022-12-07T09:08:56;8.50;86.60
14142;DHT22;7151;52.246;4.820;2022-12-07T09:11:23;8.50;86.60
14142;DHT22;7151;52.246;4.820;2022-12-07T09:13:48;8.60;86.70
14142;DHT22;7151;52.246;4.820;2022-12-07T09:16:14;8.60;86.70
14142;DHT22;7151;52.246;4.820;2022-12-07T09:18:40;8.60;86.80
14142;DHT22;7151;52.246;4.820;2022-12-07T09:21:05;8.60;86.70
14142;DHT22;7151;52.246;4.820;2022-12-07T09:23:31;8.60;86.70
14142;DHT22;7151;52.246;4.820;2022-12-07T09:26:04;8.60;86.80
14142;DHT22;7151;52.246;4.820;2022-12-07T09:28:32;8.70;86.90
14142;DHT22;7151;52.246;4.820;2022-12-07T09:30:58;8.70;86.90
14142;DHT22;7151;52.246;4.820;2022-12-07T09:33:24;8.70;87.10
14142;DHT22;7151;52.246;4.820;2022-12-07T09:35:51;8.70;87.10
14142;DHT22;7151;52.246;4.820;2022-12-07T09:38:18;8.70;87.20
14142;DHT22;7151;52.246;4.820;2022-12-07T09:40:44;8.80;87.40
14142;DHT22;7151;52.246;4.820;2022-12-07T09:43:15;8.80;87.40
14142;DHT22;7151;52.246;4.820;2022-12-07T09:45:41;8.80;87.50
14142;DHT22;7151;52.246;4.820;2022-12-07T09:48:18;8.80;87.50
14142;DHT22;7151;52.246;4.820;2022-12-07T09:50:46;8.90;87.90
14142;DHT22;7151;52.246;4.820;2022-12-07T09:53:27;8.90;87.80
14142;DHT22;7151;52.246;4.820;2022-12-07T09:55:53;9.00;88.20
14142;DHT22;7151;52.246;4.820;2022-12-07T09:58:23;9.00;88.20
14142;DHT22;7151;52.246;4.820;2022-12-07T10:01:12;9.00;88.30
14142;DHT22;7151;52.246;4.820;2022-12-07T10:03:40;9.10;88.40
14142;DHT22;7151;52.246;4.820;2022-12-07T10:06:09;9.10;88.30
14142;DHT22;7151;52.246;4.820;2022-12-07T10:08:36;9.10;88.20
14142;DHT22;7151;52.246;4.820;2022-12-07T10:11:02;9.20;88.20
14142;DHT22;7151;52.246;4.820;2022-12-07T10:13:40;9.20;88.20
14142;DHT22;7151;52.246;4.820;2022-12-07T10:16:31;9.20;88.20
14142;DHT22;7151;52.246;4.820;2022-12-07T10:19:25;9.30;88.20
14142;DHT22;7151;52.246;4.820;2022-12-07T10:22:12;9.20;88.10
14142;DHT22;7151;52.246;4.820;2022-12-07T10:24:40;9.20;88.10
14142;DHT22;7151;52.246;4.820;2022-12-07T10:27:30;9.30;88.10
14142;DHT22;7151;52.246;4.820;2022-12-07T10:29:57;9.30;88.30
14142;DHT22;7151;52.246;4.820;2022-12-07T10:32:31;9.30;88.40
14142;DHT22;7151;52.246;4.820;2022-12-07T10:35:24;9.30;88.50
14142;DHT22;7151;52.246;4.820;2022-12-07T10:37:51;9.30;88.70
14142;DHT22;7151;52.246;4.820;2022-12-07T10:40:32;9.30;88.70
14142;DHT22;7151;52.246;4.820;2022-12-07T10:43:18;9.40;88.70
14142;DHT22;7151;52.246;4.820;2022-12-07T10:48:43;9.40;88.70
14142;DHT22;7151;52.246;4.820;2022-12-07T10:56:54;9.50;89.10
14142;DHT22;7151;52.246;4.820;2022-12-07T11:05:04;9.60;88.80
14142;DHT22;7151;52.246;4.820;2022-12-07T11:10:12;9.60;88.60
14142;DHT22;7151;52.246;4.820;2022-12-07T11:12:58;9.60;88.50
14142;DHT22;7151;52.246;4.820;2022-12-07T11:18:26;9.60;88.50
14142;DHT22;7151;52.246;4.820;2022-12-07T11:21:18;9.60;88.40
14142;DHT22;7151;52.246;4.820;2022-12-07T11:24:13;9.60;88.40
14142;DHT22;7151;52.246;4.820;2022-12-07T11:35:22;9.60;89.00
14142;DHT22;7151;52.246;4.820;2022-12-07T11:37:56;9.70;89.20
14142;DHT22;7151;52.246;4.820;2022-12-07T11:40:28;9.70;89.30
14142;DHT22;7151;52.246;4.820;2022-12-07T11:43:02;9.80;89.40
14142;DHT22;7151;52.246;4.820;2022-12-07T11:45:32;9.80;89.40
14142;DHT22;7151;52.246;4.820;2022-12-07T11:48:02;9.80;89.30
14142;DHT22;7151;52.246;4.820;2022-12-07T11:50:51;9.90;89.20
14142;DHT22;7151;52.246;4.820;2022-12-07T11:53:38;9.90;89.00
14142;DHT22;7151;52.246;4.820;2022-12-07T11:56:10;9.90;88.80
14142;DHT22;7151;52.246;4.820;2022-12-07T11:58:58;10.00;88.70
14142;DHT22;7151;52.246;4.820;2022-12-07T12:06:42;10.00;88.40
14142;DHT22;7151;52.246;4.820;2022-12-07T12:09:31;10.00;88.40
14142;DHT22;7151;52.246;4.820;2022-12-07T12:20:31;10.00;87.70
14142;DHT22;7151;52.246;4.820;2022-12-07T12:25:45;9.90;87.60
14142;DHT22;7151;52.246;4.820;2022-12-07T12:28:35;10.00;87.50
14142;DHT22;7151;52.246;4.820;2022-12-07T12:33:49;10.10;87.10
14142;DHT22;7151;52.246;4.820;2022-12-07T12:38:51;10.20;87.00
14142;DHT22;7151;52.246;4.820;2022-12-07T12:47:03;10.20;86.50
14142;DHT22;7151;52.246;4.820;2022-12-07T12:54:32;10.30;86.00
14142;DHT22;7151;52.246;4.820;2022-12-07T12:57:24;10.30;85.60
14142;DHT22;7151;52.246;4.820;2022-12-07T13:02:35;10.20;85.90
14142;DHT22;7151;52.246;4.820;2022-12-07T13:15:36;10.00;85.70
14142;DHT22;7151;52.246;4.820;2022-12-07T13:20:57;9.90;86.00
14142;DHT22;7151;52.246;4.820;2022-12-07T13:28:50;9.90;86.40
14142;DHT22;7151;52.246;4.820;2022-12-07T13:31:39;9.90;86.50
14142;DHT22;7151;52.246;4.820;2022-12-07T13:34:38;9.90;86.60
14142;DHT22;7151;52.246;4.820;2022-12-07T13:37:21;9.90;86.80
14142;DHT22;7151;52.246;4.820;2022-12-07T13:39:54;9.90;86.80
14142;DHT22;7151;52.246;4.820;2022-12-07T13:42:29;10.00;86.90
14142;DHT22;7151;52.246;4.820;2022-12-07T13:44:56;10.00;87.00
14142;DHT22;7151;52.246;4.820;2022-12-07T13:47:46;10.00;87.00
14142;DHT22;7151;52.246;4.820;2022-12-07T13:50:25;10.00;87.10
14142;DHT22;7151;52.246;4.820;2022-12-07T13:52:55;10.00;87.00
14142;DHT22;7151;52.246;4.820;2022-12-07T13:55:21;10.00;87.00
14142;DHT22;7151;52.246;4.820;2022-12-07T13:57:52;10.00;87.10
14142;DHT22;7151;52.246;4.820;2022-12-07T14:00:27;10.00;87.10
14142;DHT22;7151;52.246;4.820;2022-12-07T14:02:59;10.00;87.10
14142;DHT22;7151;52.246;4.820;2022-12-07T14:05:29;10.00;87.10
14142;DHT22;7151;52.246;4.820;2022-12-07T14:08:00;10.00;87.10
14142;DHT22;7151;52.246;4.820;2022-12-07T14:13:00;10.00;87.10
14142;DHT22;7151;52.246;4.820;2022-12-07T14:15:34;10.00;87.10
14142;DHT22;7151;52.246;4.820;2022-12-07T14:18:01;10.10;87.20
14142;DHT22;7151;52.246;4.820;2022-12-07T14:20:40;10.10;87.20
14142;DHT22;7151;52.246;4.820;2022-12-07T14:23:24;10.10;87.20
14142;DHT22;7151;52.246;4.820;2022-12-07T14:25:52;10.10;87.20
14142;DHT22;7151;52.246;4.820;2022-12-07T14:28:29;10.10;87.10
14142;DHT22;7151;52.246;4.820;2022-12-07T14:30:56;10.20;87.20
14142;DHT22;7151;52.246;4.820;2022-12-07T14:33:22;10.10;87.10
14142;DHT22;7151;52.246;4.820;2022-12-07T14:35:48;10.20;87.10
14142;DHT22;7151;52.246;4.820;2022-12-07T14:38:14;10.10;87.00
14142;DHT22;7151;52.246;4.820;2022-12-07T14:40:40;10.20;87.10
14142;DHT22;7151;52.246;4.820;2022-12-07T14:43:10;10.10;87.00
14142;DHT22;7151;52.246;4.820;2022-12-07T14:45:37;10.20;87.10
14142;DHT22;7151;52.246;4.820;2022-12-07T14:48:02;10.20;87.10
14142;DHT22;7151;52.246;4.820;2022-12-07T14:50:29;10.20;87.10
14142;DHT22;7151;52.246;4.820;2022-12-07T14:53:00;10.20;87.00
14142;DHT22;7151;52.246;4.820;2022-12-07T14:55:30;10.10;86.90
14142;DHT22;7151;52.246;4.820;2022-12-07T14:57:57;10.10;86.90
14142;DHT22;7151;52.246;4.820;2022-12-07T15:00:24;10.20;87.10
14142;DHT22;7151;52.246;4.820;2022-12-07T15:02:50;10.10;86.90
14142;DHT22;7151;52.246;4.820;2022-12-07T15:05:17;10.20;87.10
14142;DHT22;7151;52.246;4.820;2022-12-07T15:07:45;10.10;87.00
14142;DHT22;7151;52.246;4.820;2022-12-07T15:10:29;10.20;87.10
14142;DHT22;7151;52.246;4.820;2022-12-07T15:13:01;10.10;87.10
14142;DHT22;7151;52.246;4.820;2022-12-07T15:15:47;10.10;87.20
14142;DHT22;7151;52.246;4.820;2022-12-07T15:18:13;10.10;87.00
14142;DHT22;7151;52.246;4.820;2022-12-07T15:20:39;10.10;87.00
14142;DHT22;7151;52.246;4.820;2022-12-07T15:23:05;10.10;87.00
14142;DHT22;7151;52.246;4.820;2022-12-07T15:25:31;10.10;87.00
14142;DHT22;7151;52.246;4.820;2022-12-07T15:27:56;10.10;86.90
14142;DHT22;7151;52.246;4.820;2022-12-07T15:30:22;10.10;86.90
14142;DHT22;7151;52.246;4.820;2022-12-07T15:32:51;10.10;86.70
14142;DHT22;7151;52.246;4.820;2022-12-07T15:35:17;10.10;86.60
14142;DHT22;7151;52.246;4.820;2022-12-07T15:37:43;10.10;86.50
14142;DHT22;7151;52.246;4.820;2022-12-07T15:40:09;10.20;86.40
14142;DHT22;7151;52.246;4.820;2022-12-07T15:42:36;10.10;86.30
14142;DHT22;7151;52.246;4.820;2022-12-07T15:45:02;10.10;86.20
14142;DHT22;7151;52.246;4.820;2022-12-07T15:47:33;10.10;86.10
14142;DHT22;7151;52.246;4.820;2022-12-07T15:49:59;10.10;86.00
14142;DHT22;7151;52.246;4.820;2022-12-07T15:52:24;10.10;86.00
14142;DHT22;7151;52.246;4.820;2022-12-07T15:54:50;10.10;85.90
14142;DHT22;7151;52.246;4.820;2022-12-07T15:57:15;10.10;85.90
14142;DHT22;7151;52.246;4.820;2022-12-07T15:59:41;10.10;85.70
14142;DHT22;7151;52.246;4.820;2022-12-07T16:02:09;10.10;85.70
14142;DHT22;7151;52.246;4.820;2022-12-07T16:04:35;10.10;85.70
14142;DHT22;7151;52.246;4.820;2022-12-07T16:07:01;10.10;85.60
14142;DHT22;7151;52.246;4.820;2022-12-07T16:09:26;10.10;85.60
14142;DHT22;7151;52.246;4.820;2022-12-07T16:11:52;10.10;85.60
14142;DHT22;7151;52.246;4.820;2022-12-07T16:14:18;10.00;85.50
14142;DHT22;7151;52.246;4.820;2022-12-07T16:16:44;10.00;85.50
14142;DHT22;7151;52.246;4.820;2022-12-07T16:19:10;10.00;85.40
14142;DHT22;7151;52.246;4.820;2022-12-07T16:21:36;10.00;85.40
14142;DHT22;7151;52.246;4.820;2022-12-07T16:24:02;10.00;85.40
14142;DHT22;7151;52.246;4.820;2022-12-07T16:26:28;10.00;85.40
14142;DHT22;7151;52.246;4.820;2022-12-07T16:28:54;10.00;85.40
14142;DHT22;7151;52.246;4.820;2022-12-07T16:31:25;10.00;85.40
14142;DHT22;7151;52.246;4.820;2022-12-07T16:33:54;10.00;85.40
14142;DHT22;7151;52.246;4.820;2022-12-07T16:36:19;9.90;85.40
14142;DHT22;7151;52.246;4.820;2022-12-07T16:38:47;9.90;85.40
14142;DHT22;7151;52.246;4.820;2022-12-07T16:41:13;10.00;85.40
14142;DHT22;7151;52.246;4.820;2022-12-07T16:43:40;10.00;85.40
14142;DHT22;7151;52.246;4.820;2022-12-07T16:46:06;10.00;85.50
14142;DHT22;7151;52.246;4.820;2022-12-07T16:48:35;10.00;85.40
14142;DHT22;7151;52.246;4.820;2022-12-07T16:51:04;10.00;85.40
14142;DHT22;7151;52.246;4.820;2022-12-07T16:53:30;9.90;85.40
14142;DHT22;7151;52.246;4.820;2022-12-07T16:55:55;10.00;85.40
14142;DHT22;7151;52.246;4.820;2022-12-07T16:58:21;10.00;85.40
14142;DHT22;7151;52.246;4.820;2022-12-07T17:00:46;10.00;85.40
14142;DHT22;7151;52.246;4.820;2022-12-07T17:03:12;9.90;85.30
14142;DHT22;7151;52.246;4.820;2022-12-07T17:05:42;9.90;85.20
14142;DHT22;7151;52.246;4.820;2022-12-07T17:08:09;9.90;85.30
14142;DHT22;7151;52.246;4.820;2022-12-07T17:10:37;9.90;85.30
14142;DHT22;7151;52.246;4.820;2022-12-07T17:13:04;9.90;85.30
14142;DHT22;7151;52.246;4.820;2022-12-07T17:15:58;9.90;85.30
14142;DHT22;7151;52.246;4.820;2022-12-07T17:18:23;9.90;85.30
14142;DHT22;7151;52.246;4.820;2022-12-07T17:20:49;9.90;85.30
14142;DHT22;7151;52.246;4.820;2022-12-07T17:23:14;9.90;85.30
14142;DHT22;7151;52.246;4.820;2022-12-07T17:25:40;9.90;86.00
14142;DHT22;7151;52.246;4.820;2022-12-07T17:28:06;9.90;85.40
14142;DHT22;7151;52.246;4.820;2022-12-07T17:30:31;9.90;85.40
14142;DHT22;7151;52.246;4.820;2022-12-07T17:32:57;9.90;85.40
14142;DHT22;7151;52.246;4.820;2022-12-07T17:35:22;9.90;85.40
14142;DHT22;7151;52.246;4.820;2022-12-07T17:37:48;9.90;85.40
14142;DHT22;7151;52.246;4.820;2022-12-07T17:40:14;9.90;85.40
14142;DHT22;7151;52.246;4.820;2022-12-07T17:42:40;9.90;85.30
14142;DHT22;7151;52.246;4.820;2022-12-07T17:45:10;9.90;85.40
14142;DHT22;7151;52.246;4.820;2022-12-07T17:47:37;9.90;85.40
14142;DHT22;7151;52.246;4.820;2022-12-07T17:50:04;9.90;85.40
14142;DHT22;7151;52.246;4.820;2022-12-07T17:52:30;9.90;85.40
14142;DHT22;7151;52.246;4.820;2022-12-07T17:55:22;9.90;85.40
14142;DHT22;7151;52.246;4.820;2022-12-07T17:57:48;9.90;85.40